sensor_id;sensor_type;location;lat;lon;timestamp;P1;durP1;ratioP1;P2;durP2;ratioP2
54388;SDS011;40975;50.390;8.640;2024-01-27T00:02:24;6.18;;;1.05;;
54388;SDS011;40975;50.390;8.640;2024-01-27T00:04:49;6.63;;;1.00;;
54388;SDS011;40975;50.390;8.640;2024-01-27T00:07:14;6.47;;;1.00;;
54388;SDS011;40975;50.390;8.640;2024-01-27T00:09:40;6.78;;;1.58;;
54388;SDS011;40975;50.390;8.640;2024-01-27T00:12:06;7.05;;;1.92;;
54388;SDS011;40975;50.390;8.640;2024-01-27T00:14:31;7.18;;;0.85;;
54388;SDS011;40975;50.390;8.640;2024-01-27T00:16:57;2.58;;;0.98;;
54388;SDS011;40975;50.390;8.640;2024-01-27T00:19:22;5.15;;;0.93;;
54388;SDS011;40975;50.390;8.640;2024-01-27T00:21:48;5.78;;;1.23;;
54388;SDS011;40975;50.390;8.640;2024-01-27T00:24:13;6.57;;;1.55;;
54388;SDS011;40975;50.390;8.640;2024-01-27T00:26:39;7.47;;;1.20;;
54388;SDS011;40975;50.390;8.640;2024-01-27T00:29:04;4.95;;;1.10;;
54388;SDS011;40975;50.390;8.640;2024-01-27T00:31:29;3.88;;;1.05;;
54388;SDS011;40975;50.390;8.640;2024-01-27T00:33:55;4.85;;;1.00;;
54388;SDS011;40975;50.390;8.640;2024-01-27T00:36:20;2.83;;;0.60;;
54388;SDS011;40975;50.390;8.640;2024-01-27T00:38:45;1.83;;;0.90;;
54388;SDS011;40975;50.390;8.640;2024-01-27T00:41:15;2.58;;;0.90;;
54388;SDS011;40975;50.390;8.640;2024-01-27T00:43:41;3.90;;;1.10;;
54388;SDS011;40975;50.390;8.640;2024-01-27T00:46:07;3.58;;;0.93;;
54388;SDS011;40975;50.390;8.640;2024-01-27T00:48:32;2.63;;;0.73;;
54388;SDS011;40975;50.390;8.640;2024-01-27T00:50:57;6.60;;;1.10;;
54388;SDS011;40975;50.390;8.640;2024-01-27T00:53:22;2.72;;;1.08;;
54388;SDS011;40975;50.390;8.640;2024-01-27T00:55:48;10.57;;;1.08;;
54388;SDS011;40975;50.390;8.640;2024-01-27T00:58:15;2.40;;;0.82;;
54388;SDS011;40975;50.390;8.640;2024-01-27T01:00:40;2.42;;;1.05;;
54388;SDS011;40975;50.390;8.640;2024-01-27T01:03:07;5.47;;;1.27;;
54388;SDS011;40975;50.390;8.640;2024-01-27T01:05:33;6.13;;;1.20;;
54388;SDS011;40975;50.390;8.640;2024-01-27T01:07:58;4.03;;;1.02;;
54388;SDS011;40975;50.390;8.640;2024-01-27T01:10:23;3.75;;;1.00;;
54388;SDS011;40975;50.390;8.640;2024-01-27T01:12:49;3.33;;;0.65;;
54388;SDS011;40975;50.390;8.640;2024-01-27T01:15:14;7.63;;;1.20;;
54388;SDS011;40975;50.390;8.640;2024-01-27T01:17:40;11.48;;;1.08;;
54388;SDS011;40975;50.390;8.640;2024-01-27T01:20:06;3.00;;;1.10;;
54388;SDS011;40975;50.390;8.640;2024-01-27T01:22:32;7.00;;;1.67;;
54388;SDS011;40975;50.390;8.640;2024-01-27T01:24:57;2.83;;;1.30;;
54388;SDS011;40975;50.390;8.640;2024-01-27T01:27:23;4.25;;;1.48;;
54388;SDS011;40975;50.390;8.640;2024-01-27T01:29:48;2.30;;;1.70;;
54388;SDS011;40975;50.390;8.640;2024-01-27T01:32:14;1.65;;;1.27;;
54388;SDS011;40975;50.390;8.640;2024-01-27T01:34:40;4.88;;;1.73;;
54388;SDS011;40975;50.390;8.640;2024-01-27T01:37:05;7.43;;;1.38;;
54388;SDS011;40975;50.390;8.640;2024-01-27T01:39:31;7.10;;;1.38;;
54388;SDS011;40975;50.390;8.640;2024-01-27T01:41:56;6.43;;;1.13;;
54388;SDS011;40975;50.390;8.640;2024-01-27T01:44:21;3.47;;;1.25;;
54388;SDS011;40975;50.390;8.640;2024-01-27T01:46:47;2.75;;;0.90;;
54388;SDS011;40975;50.390;8.640;2024-01-27T01:49:12;6.88;;;2.00;;
54388;SDS011;40975;50.390;8.640;2024-01-27T01:51:37;5.20;;;1.50;;
54388;SDS011;40975;50.390;8.640;2024-01-27T01:54:03;2.33;;;0.82;;
54388;SDS011;40975;50.390;8.640;2024-01-27T01:56:30;5.40;;;1.60;;
54388;SDS011;40975;50.390;8.640;2024-01-27T01:58:55;4.63;;;1.25;;
54388;SDS011;40975;50.390;8.640;2024-01-27T02:01:20;2.67;;;1.30;;
54388;SDS011;40975;50.390;8.640;2024-01-27T02:03:54;8.82;;;1.20;;
54388;SDS011;40975;50.390;8.640;2024-01-27T02:06:20;7.20;;;1.00;;
54388;SDS011;40975;50.390;8.640;2024-01-27T02:08:45;6.40;;;1.38;;
54388;SDS011;40975;50.390;8.640;2024-01-27T02:11:11;4.13;;;1.45;;
54388;SDS011;40975;50.390;8.640;2024-01-27T02:13:36;9.27;;;2.40;;
54388;SDS011;40975;50.390;8.640;2024-01-27T02:16:01;7.55;;;1.73;;
54388;SDS011;40975;50.390;8.640;2024-01-27T02:18:27;9.18;;;1.92;;
54388;SDS011;40975;50.390;8.640;2024-01-27T02:20:52;3.95;;;1.63;;
54388;SDS011;40975;50.390;8.640;2024-01-27T02:23:17;9.60;;;2.08;;
54388;SDS011;40975;50.390;8.640;2024-01-27T02:25:43;6.25;;;1.50;;
54388;SDS011;40975;50.390;8.640;2024-01-27T02:28:08;8.57;;;1.63;;
54388;SDS011;40975;50.390;8.640;2024-01-27T02:30:33;4.57;;;1.50;;
54388;SDS011;40975;50.390;8.640;2024-01-27T02:32:59;3.10;;;1.40;;
54388;SDS011;40975;50.390;8.640;2024-01-27T02:35:24;4.82;;;1.20;;
54388;SDS011;40975;50.390;8.640;2024-01-27T02:37:49;2.40;;;1.23;;
54388;SDS011;40975;50.390;8.640;2024-01-27T02:40:15;8.68;;;1.48;;
54388;SDS011;40975;50.390;8.640;2024-01-27T02:42:40;2.42;;;1.17;;
54388;SDS011;40975;50.390;8.640;2024-01-27T02:45:09;6.28;;;1.38;;
54388;SDS011;40975;50.390;8.640;2024-01-27T02:47:35;4.03;;;0.98;;
54388;SDS011;40975;50.390;8.640;2024-01-27T02:50:01;6.10;;;1.02;;
54388;SDS011;40975;50.390;8.640;2024-01-27T02:52:26;4.28;;;1.10;;
54388;SDS011;40975;50.390;8.640;2024-01-27T02:54:53;5.07;;;0.80;;
54388;SDS011;40975;50.390;8.640;2024-01-27T02:57:18;3.97;;;1.15;;
54388;SDS011;40975;50.390;8.640;2024-01-27T02:59:47;1.85;;;1.23;;
54388;SDS011;40975;50.390;8.640;2024-01-27T03:02:13;8.43;;;1.33;;
54388;SDS011;40975;50.390;8.640;2024-01-27T03:04:38;2.42;;;1.05;;
54388;SDS011;40975;50.390;8.640;2024-01-27T03:07:04;3.25;;;1.00;;
54388;SDS011;40975;50.390;8.640;2024-01-27T03:09:30;2.65;;;0.77;;
54388;SDS011;40975;50.390;8.640;2024-01-27T03:11:56;7.70;;;1.42;;
54388;SDS011;40975;50.390;8.640;2024-01-27T03:14:21;3.40;;;1.00;;
54388;SDS011;40975;50.390;8.640;2024-01-27T03:16:47;4.70;;;1.10;;
54388;SDS011;40975;50.390;8.640;2024-01-27T03:19:12;3.03;;;0.90;;
54388;SDS011;40975;50.390;8.640;2024-01-27T03:21:38;4.13;;;0.80;;
54388;SDS011;40975;50.390;8.640;2024-01-27T03:24:03;10.13;;;1.95;;
54388;SDS011;40975;50.390;8.640;2024-01-27T03:26:29;7.80;;;1.50;;
54388;SDS011;40975;50.390;8.640;2024-01-27T03:28:54;1.80;;;0.75;;
54388;SDS011;40975;50.390;8.640;2024-01-27T03:31:19;2.58;;;0.82;;
54388;SDS011;40975;50.390;8.640;2024-01-27T03:33:45;7.10;;;1.02;;
54388;SDS011;40975;50.390;8.640;2024-01-27T03:36:11;10.38;;;1.48;;
54388;SDS011;40975;50.390;8.640;2024-01-27T03:38:37;5.38;;;1.33;;
54388;SDS011;40975;50.390;8.640;2024-01-27T03:41:04;0.80;;;0.80;;
54388;SDS011;40975;50.390;8.640;2024-01-27T03:43:29;1.65;;;0.73;;
54388;SDS011;40975;50.390;8.640;2024-01-27T03:45:56;10.55;;;1.27;;
54388;SDS011;40975;50.390;8.640;2024-01-27T03:48:21;3.80;;;1.42;;
54388;SDS011;40975;50.390;8.640;2024-01-27T03:50:47;5.88;;;1.35;;
54388;SDS011;40975;50.390;8.640;2024-01-27T03:53:12;4.55;;;1.13;;
54388;SDS011;40975;50.390;8.640;2024-01-27T03:55:37;13.15;;;2.03;;
54388;SDS011;40975;50.390;8.640;2024-01-27T03:58:03;4.15;;;1.02;;
54388;SDS011;40975;50.390;8.640;2024-01-27T04:00:28;8.85;;;1.10;;
54388;SDS011;40975;50.390;8.640;2024-01-27T04:02:57;6.03;;;0.90;;
54388;SDS011;40975;50.390;8.640;2024-01-27T04:05:23;5.28;;;0.85;;
54388;SDS011;40975;50.390;8.640;2024-01-27T04:07:48;3.17;;;0.65;;
54388;SDS011;40975;50.390;8.640;2024-01-27T04:10:16;4.00;;;1.00;;
54388;SDS011;40975;50.390;8.640;2024-01-27T04:12:42;3.70;;;0.90;;
54388;SDS011;40975;50.390;8.640;2024-01-27T04:15:08;4.15;;;1.23;;
54388;SDS011;40975;50.390;8.640;2024-01-27T04:17:34;7.18;;;0.93;;
54388;SDS011;40975;50.390;8.640;2024-01-27T04:19:59;2.47;;;0.95;;
54388;SDS011;40975;50.390;8.640;2024-01-27T04:22:24;9.60;;;1.73;;
54388;SDS011;40975;50.390;8.640;2024-01-27T04:24:50;2.67;;;0.73;;
54388;SDS011;40975;50.390;8.640;2024-01-27T04:27:15;8.73;;;0.82;;
54388;SDS011;40975;50.390;8.640;2024-01-27T04:29:40;3.95;;;0.73;;
54388;SDS011;40975;50.390;8.640;2024-01-27T04:32:06;2.92;;;0.88;;
54388;SDS011;40975;50.390;8.640;2024-01-27T04:34:32;7.00;;;1.25;;
54388;SDS011;40975;50.390;8.640;2024-01-27T04:36:58;3.00;;;1.00;;
54388;SDS011;40975;50.390;8.640;2024-01-27T04:39:23;6.93;;;1.38;;
54388;SDS011;40975;50.390;8.640;2024-01-27T04:41:48;5.78;;;1.15;;
54388;SDS011;40975;50.390;8.640;2024-01-27T04:44:14;12.18;;;1.08;;
54388;SDS011;40975;50.390;8.640;2024-01-27T04:46:39;5.53;;;0.63;;
54388;SDS011;40975;50.390;8.640;2024-01-27T04:49:05;3.95;;;1.15;;
54388;SDS011;40975;50.390;8.640;2024-01-27T04:51:30;4.18;;;0.65;;
54388;SDS011;40975;50.390;8.640;2024-01-27T04:53:55;3.80;;;0.77;;
54388;SDS011;40975;50.390;8.640;2024-01-27T04:56:21;2.67;;;0.60;;
54388;SDS011;40975;50.390;8.640;2024-01-27T04:58:46;3.85;;;0.77;;
54388;SDS011;40975;50.390;8.640;2024-01-27T05:01:11;6.22;;;1.10;;
54388;SDS011;40975;50.390;8.640;2024-01-27T05:03:36;5.63;;;1.02;;
54388;SDS011;40975;50.390;8.640;2024-01-27T05:06:02;7.78;;;1.05;;
54388;SDS011;40975;50.390;8.640;2024-01-27T05:08:28;5.47;;;1.10;;
54388;SDS011;40975;50.390;8.640;2024-01-27T05:10:53;3.92;;;0.70;;
54388;SDS011;40975;50.390;8.640;2024-01-27T05:13:19;5.85;;;1.10;;
54388;SDS011;40975;50.390;8.640;2024-01-27T05:15:44;3.10;;;0.73;;
54388;SDS011;40975;50.390;8.640;2024-01-27T05:18:09;8.10;;;1.17;;
54388;SDS011;40975;50.390;8.640;2024-01-27T05:20:35;2.58;;;0.80;;
54388;SDS011;40975;50.390;8.640;2024-01-27T05:23:00;4.07;;;1.00;;
54388;SDS011;40975;50.390;8.640;2024-01-27T05:25:25;8.52;;;1.13;;
54388;SDS011;40975;50.390;8.640;2024-01-27T05:27:51;1.17;;;0.52;;
54388;SDS011;40975;50.390;8.640;2024-01-27T05:30:16;6.90;;;0.85;;
54388;SDS011;40975;50.390;8.640;2024-01-27T05:32:42;2.47;;;0.93;;
54388;SDS011;40975;50.390;8.640;2024-01-27T05:35:07;2.42;;;0.80;;
54388;SDS011;40975;50.390;8.640;2024-01-27T05:37:34;4.43;;;1.10;;
54388;SDS011;40975;50.390;8.640;2024-01-27T05:40:00;0.98;;;0.60;;
54388;SDS011;40975;50.390;8.640;2024-01-27T05:42:26;5.53;;;0.70;;
54388;SDS011;40975;50.390;8.640;2024-01-27T05:44:51;6.00;;;0.95;;
54388;SDS011;40975;50.390;8.640;2024-01-27T05:47:18;6.82;;;1.00;;
54388;SDS011;40975;50.390;8.640;2024-01-27T05:49:43;5.30;;;0.90;;
54388;SDS011;40975;50.390;8.640;2024-01-27T05:52:08;4.00;;;0.70;;
54388;SDS011;40975;50.390;8.640;2024-01-27T05:54:34;3.30;;;1.00;;
54388;SDS011;40975;50.390;8.640;2024-01-27T05:56:59;3.25;;;0.98;;
54388;SDS011;40975;50.390;8.640;2024-01-27T05:59:25;4.13;;;1.02;;
54388;SDS011;40975;50.390;8.640;2024-01-27T06:01:50;8.32;;;1.30;;
54388;SDS011;40975;50.390;8.640;2024-01-27T06:04:16;2.88;;;0.68;;
54388;SDS011;40975;50.390;8.640;2024-01-27T06:06:41;3.20;;;0.63;;
54388;SDS011;40975;50.390;8.640;2024-01-27T06:09:07;1.05;;;0.47;;
54388;SDS011;40975;50.390;8.640;2024-01-27T06:11:36;6.47;;;1.00;;
54388;SDS011;40975;50.390;8.640;2024-01-27T06:14:01;4.93;;;1.20;;
54388;SDS011;40975;50.390;8.640;2024-01-27T06:16:26;4.68;;;1.00;;
54388;SDS011;40975;50.390;8.640;2024-01-27T06:18:52;4.93;;;0.80;;
54388;SDS011;40975;50.390;8.640;2024-01-27T06:21:19;7.40;;;1.13;;
54388;SDS011;40975;50.390;8.640;2024-01-27T06:23:44;4.35;;;0.90;;
54388;SDS011;40975;50.390;8.640;2024-01-27T06:26:10;6.18;;;0.98;;
54388;SDS011;40975;50.390;8.640;2024-01-27T06:28:38;4.45;;;0.77;;
54388;SDS011;40975;50.390;8.640;2024-01-27T06:31:04;1.15;;;0.75;;
54388;SDS011;40975;50.390;8.640;2024-01-27T06:33:29;3.67;;;0.95;;
54388;SDS011;40975;50.390;8.640;2024-01-27T06:35:55;3.22;;;0.98;;
54388;SDS011;40975;50.390;8.640;2024-01-27T06:38:20;6.30;;;1.10;;
54388;SDS011;40975;50.390;8.640;2024-01-27T06:40:45;4.35;;;0.98;;
54388;SDS011;40975;50.390;8.640;2024-01-27T06:43:12;3.42;;;1.02;;
54388;SDS011;40975;50.390;8.640;2024-01-27T06:45:38;6.07;;;0.88;;
54388;SDS011;40975;50.390;8.640;2024-01-27T06:48:03;5.15;;;1.02;;
54388;SDS011;40975;50.390;8.640;2024-01-27T06:50:29;4.78;;;1.00;;
54388;SDS011;40975;50.390;8.640;2024-01-27T06:52:55;4.47;;;0.60;;
54388;SDS011;40975;50.390;8.640;2024-01-27T06:55:20;2.25;;;0.88;;
54388;SDS011;40975;50.390;8.640;2024-01-27T06:57:45;2.75;;;0.82;;
54388;SDS011;40975;50.390;8.640;2024-01-27T07:00:11;2.60;;;0.80;;
54388;SDS011;40975;50.390;8.640;2024-01-27T07:02:39;5.47;;;1.17;;
54388;SDS011;40975;50.390;8.640;2024-01-27T07:05:07;1.45;;;0.57;;
54388;SDS011;40975;50.390;8.640;2024-01-27T07:07:33;4.38;;;1.15;;
54388;SDS011;40975;50.390;8.640;2024-01-27T07:09:58;4.10;;;0.77;;
54388;SDS011;40975;50.390;8.640;2024-01-27T07:12:23;4.97;;;0.70;;
54388;SDS011;40975;50.390;8.640;2024-01-27T07:14:49;8.05;;;1.25;;
54388;SDS011;40975;50.390;8.640;2024-01-27T07:17:16;1.15;;;0.75;;
54388;SDS011;40975;50.390;8.640;2024-01-27T07:19:42;4.28;;;0.82;;
54388;SDS011;40975;50.390;8.640;2024-01-27T07:22:07;5.40;;;1.27;;
54388;SDS011;40975;50.390;8.640;2024-01-27T07:24:33;4.43;;;1.10;;
54388;SDS011;40975;50.390;8.640;2024-01-27T07:27:01;1.13;;;1.02;;
54388;SDS011;40975;50.390;8.640;2024-01-27T07:29:27;4.45;;;0.82;;
54388;SDS011;40975;50.390;8.640;2024-01-27T07:31:53;2.95;;;0.80;;
54388;SDS011;40975;50.390;8.640;2024-01-27T07:34:18;5.70;;;1.27;;
54388;SDS011;40975;50.390;8.640;2024-01-27T07:36:44;2.75;;;0.47;;
54388;SDS011;40975;50.390;8.640;2024-01-27T07:39:10;1.30;;;0.52;;
54388;SDS011;40975;50.390;8.640;2024-01-27T07:41:35;7.70;;;1.23;;
54388;SDS011;40975;50.390;8.640;2024-01-27T07:44:07;6.85;;;0.88;;
54388;SDS011;40975;50.390;8.640;2024-01-27T07:46:34;6.43;;;0.50;;
54388;SDS011;40975;50.390;8.640;2024-01-27T07:48:59;6.78;;;1.05;;
54388;SDS011;40975;50.390;8.640;2024-01-27T07:51:25;3.85;;;0.73;;
54388;SDS011;40975;50.390;8.640;2024-01-27T07:53:50;2.10;;;0.60;;
54388;SDS011;40975;50.390;8.640;2024-01-27T07:56:15;5.63;;;1.05;;
54388;SDS011;40975;50.390;8.640;2024-01-27T07:58:41;3.10;;;1.38;;
54388;SDS011;40975;50.390;8.640;2024-01-27T08:01:06;6.22;;;0.98;;
54388;SDS011;40975;50.390;8.640;2024-01-27T08:03:32;1.98;;;1.20;;
54388;SDS011;40975;50.390;8.640;2024-01-27T08:05:57;7.03;;;1.13;;
54388;SDS011;40975;50.390;8.640;2024-01-27T08:08:23;3.42;;;0.80;;
54388;SDS011;40975;50.390;8.640;2024-01-27T08:10:48;8.32;;;0.82;;
54388;SDS011;40975;50.390;8.640;2024-01-27T08:13:14;3.75;;;1.20;;
54388;SDS011;40975;50.390;8.640;2024-01-27T08:15:39;6.32;;;1.48;;
54388;SDS011;40975;50.390;8.640;2024-01-27T08:18:04;2.65;;;0.98;;
54388;SDS011;40975;50.390;8.640;2024-01-27T08:20:30;6.97;;;1.05;;
54388;SDS011;40975;50.390;8.640;2024-01-27T08:22:55;6.30;;;1.35;;
54388;SDS011;40975;50.390;8.640;2024-01-27T08:25:20;12.02;;;2.67;;
54388;SDS011;40975;50.390;8.640;2024-01-27T08:27:46;36.92;;;12.45;;
54388;SDS011;40975;50.390;8.640;2024-01-27T08:30:11;20.90;;;8.93;;
54388;SDS011;40975;50.390;8.640;2024-01-27T08:32:37;8.13;;;2.78;;
54388;SDS011;40975;50.390;8.640;2024-01-27T08:35:02;11.98;;;2.28;;
54388;SDS011;40975;50.390;8.640;2024-01-27T08:37:28;10.30;;;2.38;;
54388;SDS011;40975;50.390;8.640;2024-01-27T08:39:53;3.78;;;2.03;;
54388;SDS011;40975;50.390;8.640;2024-01-27T08:42:18;10.75;;;5.15;;
54388;SDS011;40975;50.390;8.640;2024-01-27T08:44:44;8.40;;;2.10;;
54388;SDS011;40975;50.390;8.640;2024-01-27T08:47:09;6.90;;;1.90;;
54388;SDS011;40975;50.390;8.640;2024-01-27T08:49:34;9.55;;;2.22;;
54388;SDS011;40975;50.390;8.640;2024-01-27T08:52:00;10.85;;;1.77;;
54388;SDS011;40975;50.390;8.640;2024-01-27T08:54:25;6.85;;;1.52;;
54388;SDS011;40975;50.390;8.640;2024-01-27T08:56:50;9.45;;;1.88;;
54388;SDS011;40975;50.390;8.640;2024-01-27T08:59:16;6.80;;;1.75;;
54388;SDS011;40975;50.390;8.640;2024-01-27T09:01:41;3.35;;;1.17;;
54388;SDS011;40975;50.390;8.640;2024-01-27T09:04:07;8.75;;;1.70;;
54388;SDS011;40975;50.390;8.640;2024-01-27T09:06:32;5.13;;;0.90;;
54388;SDS011;40975;50.390;8.640;2024-01-27T09:08:58;7.07;;;1.40;;
54388;SDS011;40975;50.390;8.640;2024-01-27T09:11:23;2.08;;;0.80;;
54388;SDS011;40975;50.390;8.640;2024-01-27T09:13:49;7.43;;;1.48;;
54388;SDS011;40975;50.390;8.640;2024-01-27T09:16:17;7.32;;;1.77;;
54388;SDS011;40975;50.390;8.640;2024-01-27T09:18:42;7.03;;;1.85;;
54388;SDS011;40975;50.390;8.640;2024-01-27T09:21:08;7.88;;;1.88;;
54388;SDS011;40975;50.390;8.640;2024-01-27T09:23:34;7.32;;;1.63;;
54388;SDS011;40975;50.390;8.640;2024-01-27T09:25:59;6.25;;;1.35;;
54388;SDS011;40975;50.390;8.640;2024-01-27T09:28:25;5.45;;;1.50;;
54388;SDS011;40975;50.390;8.640;2024-01-27T09:30:50;7.35;;;1.38;;
54388;SDS011;40975;50.390;8.640;2024-01-27T09:33:16;6.28;;;1.40;;
54388;SDS011;40975;50.390;8.640;2024-01-27T09:35:44;9.48;;;1.70;;
54388;SDS011;40975;50.390;8.640;2024-01-27T09:38:10;3.97;;;1.83;;
54388;SDS011;40975;50.390;8.640;2024-01-27T09:40:37;10.25;;;1.70;;
54388;SDS011;40975;50.390;8.640;2024-01-27T09:43:03;5.80;;;2.05;;
54388;SDS011;40975;50.390;8.640;2024-01-27T09:45:28;8.95;;;1.98;;
54388;SDS011;40975;50.390;8.640;2024-01-27T09:47:56;7.70;;;2.47;;
54388;SDS011;40975;50.390;8.640;2024-01-27T09:50:24;8.00;;;1.92;;
54388;SDS011;40975;50.390;8.640;2024-01-27T09:52:49;7.07;;;2.30;;
54388;SDS011;40975;50.390;8.640;2024-01-27T09:55:15;7.10;;;1.70;;
54388;SDS011;40975;50.390;8.640;2024-01-27T09:57:41;5.50;;;2.00;;
54388;SDS011;40975;50.390;8.640;2024-01-27T10:00:09;6.20;;;1.83;;
54388;SDS011;40975;50.390;8.640;2024-01-27T10:02:38;7.03;;;1.98;;
54388;SDS011;40975;50.390;8.640;2024-01-27T10:05:05;8.02;;;2.38;;
54388;SDS011;40975;50.390;8.640;2024-01-27T10:07:32;6.50;;;2.13;;
54388;SDS011;40975;50.390;8.640;2024-01-27T10:09:57;6.55;;;2.47;;
54388;SDS011;40975;50.390;8.640;2024-01-27T10:12:22;6.65;;;1.95;;
54388;SDS011;40975;50.390;8.640;2024-01-27T10:14:51;4.70;;;1.65;;
54388;SDS011;40975;50.390;8.640;2024-01-27T10:17:24;3.90;;;1.77;;
54388;SDS011;40975;50.390;8.640;2024-01-27T10:20:03;4.38;;;2.15;;
54388;SDS011;40975;50.390;8.640;2024-01-27T10:22:40;8.32;;;2.10;;
54388;SDS011;40975;50.390;8.640;2024-01-27T10:25:06;6.28;;;2.33;;
54388;SDS011;40975;50.390;8.640;2024-01-27T10:27:32;6.40;;;2.10;;
54388;SDS011;40975;50.390;8.640;2024-01-27T10:29:57;6.07;;;3.42;;
54388;SDS011;40975;50.390;8.640;2024-01-27T10:32:22;5.03;;;2.33;;
54388;SDS011;40975;50.390;8.640;2024-01-27T10:35:06;8.20;;;3.83;;
54388;SDS011;40975;50.390;8.640;2024-01-27T10:37:36;6.97;;;2.70;;
54388;SDS011;40975;50.390;8.640;2024-01-27T10:42:28;6.22;;;2.20;;
54388;SDS011;40975;50.390;8.640;2024-01-27T10:44:56;7.10;;;2.20;;
54388;SDS011;40975;50.390;8.640;2024-01-27T10:47:23;4.47;;;2.42;;
54388;SDS011;40975;50.390;8.640;2024-01-27T10:49:56;5.13;;;1.77;;
54388;SDS011;40975;50.390;8.640;2024-01-27T10:52:28;7.95;;;2.40;;
54388;SDS011;40975;50.390;8.640;2024-01-27T10:55:01;11.23;;;2.95;;
54388;SDS011;40975;50.390;8.640;2024-01-27T10:57:29;6.53;;;1.75;;
54388;SDS011;40975;50.390;8.640;2024-01-27T10:59:55;10.02;;;2.80;;
54388;SDS011;40975;50.390;8.640;2024-01-27T11:02:22;6.85;;;1.80;;
54388;SDS011;40975;50.390;8.640;2024-01-27T11:04:48;5.60;;;2.28;;
54388;SDS011;40975;50.390;8.640;2024-01-27T11:07:14;8.63;;;2.28;;
54388;SDS011;40975;50.390;8.640;2024-01-27T11:09:41;6.65;;;2.65;;
54388;SDS011;40975;50.390;8.640;2024-01-27T11:12:07;6.70;;;1.80;;
54388;SDS011;40975;50.390;8.640;2024-01-27T11:14:34;3.30;;;1.80;;
54388;SDS011;40975;50.390;8.640;2024-01-27T11:16:59;4.65;;;1.95;;
54388;SDS011;40975;50.390;8.640;2024-01-27T11:19:25;5.97;;;2.17;;
54388;SDS011;40975;50.390;8.640;2024-01-27T11:22:03;7.95;;;3.10;;
54388;SDS011;40975;50.390;8.640;2024-01-27T11:24:29;6.50;;;2.42;;
54388;SDS011;40975;50.390;8.640;2024-01-27T11:27:04;6.63;;;1.80;;
54388;SDS011;40975;50.390;8.640;2024-01-27T11:29:31;9.65;;;2.72;;
54388;SDS011;40975;50.390;8.640;2024-01-27T11:31:59;10.98;;;2.63;;
54388;SDS011;40975;50.390;8.640;2024-01-27T11:34:27;6.45;;;2.30;;
54388;SDS011;40975;50.390;8.640;2024-01-27T11:36:52;10.90;;;2.35;;
54388;SDS011;40975;50.390;8.640;2024-01-27T11:39:28;5.05;;;2.22;;
54388;SDS011;40975;50.390;8.640;2024-01-27T11:42:07;7.68;;;3.05;;
54388;SDS011;40975;50.390;8.640;2024-01-27T11:44:37;8.65;;;3.38;;
54388;SDS011;40975;50.390;8.640;2024-01-27T11:47:03;6.85;;;2.35;;
54388;SDS011;40975;50.390;8.640;2024-01-27T11:49:29;12.50;;;3.08;;
54388;SDS011;40975;50.390;8.640;2024-01-27T11:51:55;10.18;;;2.58;;
54388;SDS011;40975;50.390;8.640;2024-01-27T11:54:20;6.22;;;2.60;;
54388;SDS011;40975;50.390;8.640;2024-01-27T11:56:46;5.00;;;2.35;;
54388;SDS011;40975;50.390;8.640;2024-01-27T11:59:11;8.75;;;3.47;;
54388;SDS011;40975;50.390;8.640;2024-01-27T12:01:37;9.93;;;2.67;;
54388;SDS011;40975;50.390;8.640;2024-01-27T12:04:03;8.95;;;2.78;;
54388;SDS011;40975;50.390;8.640;2024-01-27T12:06:29;8.63;;;2.70;;
54388;SDS011;40975;50.390;8.640;2024-01-27T12:08:55;8.23;;;2.85;;
54388;SDS011;40975;50.390;8.640;2024-01-27T12:11:22;13.20;;;2.95;;
54388;SDS011;40975;50.390;8.640;2024-01-27T12:13:51;12.57;;;3.33;;
54388;SDS011;40975;50.390;8.640;2024-01-27T12:16:17;9.18;;;3.15;;
54388;SDS011;40975;50.390;8.640;2024-01-27T12:18:43;6.18;;;2.53;;
54388;SDS011;40975;50.390;8.640;2024-01-27T12:21:09;6.15;;;2.28;;
54388;SDS011;40975;50.390;8.640;2024-01-27T12:23:34;9.75;;;2.92;;
54388;SDS011;40975;50.390;8.640;2024-01-27T12:26:00;5.97;;;2.28;;
54388;SDS011;40975;50.390;8.640;2024-01-27T12:28:26;7.28;;;2.50;;
54388;SDS011;40975;50.390;8.640;2024-01-27T12:30:52;11.70;;;2.72;;
54388;SDS011;40975;50.390;8.640;2024-01-27T12:33:18;6.80;;;2.65;;
54388;SDS011;40975;50.390;8.640;2024-01-27T12:35:48;9.70;;;2.90;;
54388;SDS011;40975;50.390;8.640;2024-01-27T12:38:14;6.88;;;2.47;;
54388;SDS011;40975;50.390;8.640;2024-01-27T12:40:39;11.23;;;3.55;;
54388;SDS011;40975;50.390;8.640;2024-01-27T12:43:04;10.00;;;2.33;;
54388;SDS011;40975;50.390;8.640;2024-01-27T12:45:30;8.50;;;2.00;;
54388;SDS011;40975;50.390;8.640;2024-01-27T12:47:56;9.70;;;2.83;;
54388;SDS011;40975;50.390;8.640;2024-01-27T12:50:21;10.00;;;2.75;;
54388;SDS011;40975;50.390;8.640;2024-01-27T12:52:47;8.10;;;2.83;;
54388;SDS011;40975;50.390;8.640;2024-01-27T12:55:13;7.75;;;1.98;;
54388;SDS011;40975;50.390;8.640;2024-01-27T12:57:39;9.77;;;2.67;;
54388;SDS011;40975;50.390;8.640;2024-01-27T13:00:05;12.02;;;2.83;;
54388;SDS011;40975;50.390;8.640;2024-01-27T13:02:35;7.85;;;2.40;;
54388;SDS011;40975;50.390;8.640;2024-01-27T13:05:03;8.43;;;2.55;;
54388;SDS011;40975;50.390;8.640;2024-01-27T13:07:28;7.40;;;2.40;;
54388;SDS011;40975;50.390;8.640;2024-01-27T13:09:54;5.20;;;2.17;;
54388;SDS011;40975;50.390;8.640;2024-01-27T13:12:19;4.63;;;1.95;;
54388;SDS011;40975;50.390;8.640;2024-01-27T13:14:45;6.20;;;3.03;;
54388;SDS011;40975;50.390;8.640;2024-01-27T13:17:10;7.47;;;2.47;;
54388;SDS011;40975;50.390;8.640;2024-01-27T13:19:35;7.10;;;2.53;;
54388;SDS011;40975;50.390;8.640;2024-01-27T13:22:01;5.22;;;2.38;;
54388;SDS011;40975;50.390;8.640;2024-01-27T13:24:26;5.32;;;2.08;;
54388;SDS011;40975;50.390;8.640;2024-01-27T13:26:53;10.32;;;2.90;;
54388;SDS011;40975;50.390;8.640;2024-01-27T13:29:18;7.13;;;2.53;;
54388;SDS011;40975;50.390;8.640;2024-01-27T13:31:43;13.13;;;2.72;;
54388;SDS011;40975;50.390;8.640;2024-01-27T13:34:09;5.57;;;2.08;;
54388;SDS011;40975;50.390;8.640;2024-01-27T13:36:34;8.38;;;3.00;;
54388;SDS011;40975;50.390;8.640;2024-01-27T13:39:00;9.52;;;2.95;;
54388;SDS011;40975;50.390;8.640;2024-01-27T13:41:25;8.77;;;2.42;;
54388;SDS011;40975;50.390;8.640;2024-01-27T13:43:50;6.10;;;1.92;;
54388;SDS011;40975;50.390;8.640;2024-01-27T13:46:16;7.93;;;2.20;;
54388;SDS011;40975;50.390;8.640;2024-01-27T13:48:42;8.15;;;2.10;;
54388;SDS011;40975;50.390;8.640;2024-01-27T13:51:07;10.32;;;2.10;;
54388;SDS011;40975;50.390;8.640;2024-01-27T13:53:33;6.85;;;1.88;;
54388;SDS011;40975;50.390;8.640;2024-01-27T13:55:58;8.90;;;2.28;;
54388;SDS011;40975;50.390;8.640;2024-01-27T13:58:25;8.90;;;2.05;;
54388;SDS011;40975;50.390;8.640;2024-01-27T14:00:51;8.10;;;2.13;;
54388;SDS011;40975;50.390;8.640;2024-01-27T14:03:17;7.38;;;1.70;;
54388;SDS011;40975;50.390;8.640;2024-01-27T14:05:42;6.28;;;2.40;;
54388;SDS011;40975;50.390;8.640;2024-01-27T14:08:08;8.52;;;2.15;;
54388;SDS011;40975;50.390;8.640;2024-01-27T14:10:35;6.78;;;2.17;;
54388;SDS011;40975;50.390;8.640;2024-01-27T14:13:01;11.25;;;1.98;;
54388;SDS011;40975;50.390;8.640;2024-01-27T14:15:29;3.65;;;1.65;;
54388;SDS011;40975;50.390;8.640;2024-01-27T14:17:55;8.10;;;2.10;;
54388;SDS011;40975;50.390;8.640;2024-01-27T14:20:20;6.22;;;1.95;;
54388;SDS011;40975;50.390;8.640;2024-01-27T14:22:45;6.30;;;1.60;;
54388;SDS011;40975;50.390;8.640;2024-01-27T14:25:11;4.97;;;1.92;;
54388;SDS011;40975;50.390;8.640;2024-01-27T14:27:37;4.65;;;1.55;;
54388;SDS011;40975;50.390;8.640;2024-01-27T14:30:03;3.20;;;2.13;;
54388;SDS011;40975;50.390;8.640;2024-01-27T14:32:28;6.63;;;2.28;;
54388;SDS011;40975;50.390;8.640;2024-01-27T14:34:54;9.45;;;1.95;;
54388;SDS011;40975;50.390;8.640;2024-01-27T14:37:19;6.47;;;1.90;;
54388;SDS011;40975;50.390;8.640;2024-01-27T14:39:45;4.50;;;1.83;;
54388;SDS011;40975;50.390;8.640;2024-01-27T14:42:12;3.95;;;1.30;;